sensor_id;sensor_type;location;lat;lon;timestamp;pressure;altitude;pressure_sealevel;temperature;humidity
11053;BME280;55230;42.602;23.470;2022-08-21T00:00:20;93012.47;;;17.46;100.00
11053;BME280;55230;42.602;23.470;2022-08-21T00:02:49;93008.53;;;17.36;100.00
11053;BME280;55230;42.602;23.470;2022-08-21T00:05:17;93004.06;;;17.32;100.00
11053;BME280;55230;42.602;23.470;2022-08-21T00:07:44;93001.69;;;17.12;100.00
11053;BME280;55230;42.602;23.470;2022-08-21T00:10:13;93008.06;;;17.31;100.00
11053;BME280;55230;42.602;23.470;2022-08-21T00:12:40;92956.16;;;16.96;100.00
11053;BME280;55230;42.602;23.470;2022-08-21T00:15:09;92992.72;;;17.28;100.00
11053;BME280;55230;42.602;23.470;2022-08-21T00:17:36;92987.44;;;17.42;100.00
11053;BME280;55230;42.602;23.470;2022-08-21T00:20:06;92983.50;;;17.43;100.00
11053;BME280;55230;42.602;23.470;2022-08-21T00:22:34;92952.44;;;17.05;100.00
11053;BME280;55230;42.602;23.470;2022-08-21T00:25:01;92995.16;;;17.38;100.00
11053;BME280;55230;42.602;23.470;2022-08-21T00:27:30;92939.53;;;17.05;100.00
11053;BME280;55230;42.602;23.470;2022-08-21T00:29:56;92994.59;;;17.56;100.00
11053;BME280;55230;42.602;23.470;2022-08-21T00:32:24;92977.59;;;17.27;100.00
11053;BME280;55230;42.602;23.470;2022-08-21T00:34:52;92970.34;;;17.47;100.00
11053;BME280;55230;42.602;23.470;2022-08-21T00:37:19;92908.63;;;16.97;100.00
11053;BME280;55230;42.602;23.470;2022-08-21T00:39:46;92924.88;;;17.14;100.00
11053;BME280;55230;42.602;23.470;2022-08-21T00:42:14;92987.16;;;17.62;100.00
11053;BME280;55230;42.602;23.470;2022-08-21T00:44:43;92934.50;;;17.26;100.00
11053;BME280;55230;42.602;23.470;2022-08-21T00:47:10;92992.66;;;17.51;100.00
11053;BME280;55230;42.602;23.470;2022-08-21T00:49:38;92994.44;;;17.26;100.00
11053;BME280;55230;42.602;23.470;2022-08-21T00:52:07;93001.69;;;17.12;100.00
11053;BME280;55230;42.602;23.470;2022-08-21T00:54:36;92694.56;;;14.58;100.00
11053;BME280;55230;42.602;23.470;2022-08-21T00:57:10;92960.19;;;16.73;100.00
11053;BME280;55230;42.602;23.470;2022-08-21T00:59:40;92938.41;;;16.68;100.00
11053;BME280;55230;42.602;23.470;2022-08-21T01:02:10;92977.13;;;17.23;100.00
11053;BME280;55230;42.602;23.470;2022-08-21T01:04:37;92816.31;;;16.09;100.00
11053;BME280;55230;42.602;23.470;2022-08-21T01:07:04;92642.31;;;14.80;100.00
11053;BME280;55230;42.602;23.470;2022-08-21T01:09:31;92964.44;;;17.37;100.00
11053;BME280;55230;42.602;23.470;2022-08-21T01:11:58;92984.44;;;17.56;100.00
11053;BME280;55230;42.602;23.470;2022-08-21T01:14:25;92987.38;;;17.64;100.00
11053;BME280;55230;42.602;23.470;2022-08-21T01:16:54;92431.50;;;13.98;100.00
11053;BME280;55230;42.602;23.470;2022-08-21T01:19:24;92883.81;;;17.06;100.00
11053;BME280;55230;42.602;23.470;2022-08-21T01:21:53;92906.31;;;17.18;100.00
11053;BME280;55230;42.602;23.470;2022-08-21T01:24:20;92912.44;;;17.29;100.00
11053;BME280;55230;42.602;23.470;2022-08-21T01:26:48;92883.50;;;17.21;100.00
11053;BME280;55230;42.602;23.470;2022-08-21T01:29:23;92971.94;;;17.77;100.00
11053;BME280;55230;42.602;23.470;2022-08-21T01:31:53;92977.88;;;17.76;100.00
11053;BME280;55230;42.602;23.470;2022-08-21T01:34:19;92656.75;;;15.65;100.00
11053;BME280;55230;42.602;23.470;2022-08-21T01:36:47;92446.75;;;14.17;100.00
11053;BME280;55230;42.602;23.470;2022-08-21T01:39:16;92927.81;;;17.27;100.00
11053;BME280;55230;42.602;23.470;2022-08-21T01:41:43;92733.09;;;15.67;100.00
11053;BME280;55230;42.602;23.470;2022-08-21T01:44:10;92973.50;;;17.62;100.00
11053;BME280;55230;42.602;23.470;2022-08-21T01:46:36;92977.44;;;17.66;100.00
11053;BME280;55230;42.602;23.470;2022-08-21T01:49:03;92903.84;;;17.14;100.00
11053;BME280;55230;42.602;23.470;2022-08-21T01:51:31;92982.69;;;17.59;100.00
11053;BME280;55230;42.602;23.470;2022-08-21T01:53:57;92991.38;;;17.57;100.00
11053;BME280;55230;42.602;23.470;2022-08-21T01:56:26;92926.44;;;16.98;100.00
11053;BME280;55230;42.602;23.470;2022-08-21T01:58:53;92922.94;;;17.03;100.00
11053;BME280;55230;42.602;23.470;2022-08-21T02:01:20;92989.16;;;17.56;100.00
11053;BME280;55230;42.602;23.470;2022-08-21T02:03:46;92986.94;;;17.54;100.00
11053;BME280;55230;42.602;23.470;2022-08-21T02:06:15;92905.16;;;16.91;100.00
11053;BME280;55230;42.602;23.470;2022-08-21T02:08:43;92986.19;;;17.48;100.00
11053;BME280;55230;42.602;23.470;2022-08-21T02:11:10;92991.91;;;17.45;100.00
11053;BME280;55230;42.602;23.470;2022-08-21T02:13:38;93008.53;;;17.41;100.00
11053;BME280;55230;42.602;23.470;2022-08-21T02:16:05;92989.97;;;17.34;100.00
11053;BME280;55230;42.602;23.470;2022-08-21T02:18:33;92940.06;;;16.93;100.00
11053;BME280;55230;42.602;23.470;2022-08-21T02:21:01;92948.22;;;16.98;100.00
11053;BME280;55230;42.602;23.470;2022-08-21T02:23:29;92883.25;;;16.40;100.00
11053;BME280;55230;42.602;23.470;2022-08-21T02:25:56;92421.81;;;13.36;100.00
11053;BME280;55230;42.602;23.470;2022-08-21T02:28:23;92957.94;;;16.83;100.00
11053;BME280;55230;42.602;23.470;2022-08-21T02:30:51;92995.94;;;17.27;100.00
11053;BME280;55230;42.602;23.470;2022-08-21T02:33:19;92958.16;;;16.96;100.00
11053;BME280;55230;42.602;23.470;2022-08-21T02:35:47;93010.78;;;17.26;100.00
11053;BME280;55230;42.602;23.470;2022-08-21T02:38:17;93000.38;;;17.30;100.00
11053;BME280;55230;42.602;23.470;2022-08-21T02:40:47;93005.84;;;17.30;100.00
11053;BME280;55230;42.602;23.470;2022-08-21T02:43:14;93018.47;;;17.27;100.00
11053;BME280;55230;42.602;23.470;2022-08-21T02:45:42;92998.88;;;17.34;100.00
11053;BME280;55230;42.602;23.470;2022-08-21T02:48:13;92998.59;;;17.38;100.00
11053;BME280;55230;42.602;23.470;2022-08-21T02:50:42;92994.41;;;17.43;100.00
11053;BME280;55230;42.602;23.470;2022-08-21T02:53:11;92993.88;;;17.44;100.00
11053;BME280;55230;42.602;23.470;2022-08-21T02:55:39;93019.41;;;17.47;100.00
11053;BME280;55230;42.602;23.470;2022-08-21T02:58:07;92999.81;;;17.54;100.00
11053;BME280;55230;42.602;23.470;2022-08-21T03:00:35;93008.97;;;17.56;100.00
11053;BME280;55230;42.602;23.470;2022-08-21T03:03:02;92919.00;;;17.04;100.00
11053;BME280;55230;42.602;23.470;2022-08-21T03:05:32;92966.22;;;17.29;100.00
11053;BME280;55230;42.602;23.470;2022-08-21T03:08:01;93001.75;;;17.64;100.00
11053;BME280;55230;42.602;23.470;2022-08-21T03:10:29;92965.13;;;17.43;100.00
11053;BME280;55230;42.602;23.470;2022-08-21T03:12:56;92883.38;;;16.91;100.00
11053;BME280;55230;42.602;23.470;2022-08-21T03:15:23;92989.81;;;17.73;100.00
11053;BME280;55230;42.602;23.470;2022-08-21T03:17:51;92993.53;;;17.70;100.00
11053;BME280;55230;42.602;23.470;2022-08-21T03:20:21;92960.44;;;17.44;100.00
11053;BME280;55230;42.602;23.470;2022-08-21T03:22:50;92997.97;;;17.73;100.00
11053;BME280;55230;42.602;23.470;2022-08-21T03:25:18;93000.25;;;17.69;100.00
11053;BME280;55230;42.602;23.470;2022-08-21T03:27:45;93002.72;;;17.72;100.00
11053;BME280;55230;42.602;23.470;2022-08-21T03:30:12;92895.97;;;17.00;100.00
11053;BME280;55230;42.602;23.470;2022-08-21T03:32:39;93009.84;;;17.81;100.00
11053;BME280;55230;42.602;23.470;2022-08-21T03:35:07;92996.28;;;17.70;100.00
11053;BME280;55230;42.602;23.470;2022-08-21T03:37:34;93021.22;;;17.85;100.00
11053;BME280;55230;42.602;23.470;2022-08-21T03:40:03;92866.84;;;16.84;100.00
11053;BME280;55230;42.602;23.470;2022-08-21T03:42:30;93014.81;;;17.82;100.00
11053;BME280;55230;42.602;23.470;2022-08-21T03:44:56;93018.00;;;17.86;100.00
11053;BME280;55230;42.602;23.470;2022-08-21T03:47:23;93007.81;;;17.87;100.00
11053;BME280;55230;42.602;23.470;2022-08-21T03:49:50;92917.72;;;17.16;100.00
11053;BME280;55230;42.602;23.470;2022-08-21T03:52:17;93029.38;;;17.90;100.00
11053;BME280;55230;42.602;23.470;2022-08-21T03:54:44;92908.50;;;17.25;100.00
11053;BME280;55230;42.602;23.470;2022-08-21T03:57:13;92622.53;;;15.18;100.00
11053;BME280;55230;42.602;23.470;2022-08-21T03:59:40;93013.75;;;17.91;100.00
11053;BME280;55230;42.602;23.470;2022-08-21T04:02:09;93017.72;;;17.90;100.00
11053;BME280;55230;42.602;23.470;2022-08-21T04:04:36;93012.00;;;17.93;100.00
11053;BME280;55230;42.602;23.470;2022-08-21T04:07:03;93008.50;;;17.98;100.00
11053;BME280;55230;42.602;23.470;2022-08-21T04:09:30;93005.56;;;17.96;100.00
11053;BME280;55230;42.602;23.470;2022-08-21T04:11:58;93005.81;;;17.93;100.00
11053;BME280;55230;42.602;23.470;2022-08-21T04:14:27;92621.03;;;15.23;100.00
11053;BME280;55230;42.602;23.470;2022-08-21T04:16:53;93014.03;;;17.87;100.00
11053;BME280;55230;42.602;23.470;2022-08-21T04:19:20;92884.38;;;16.88;100.00
11053;BME280;55230;42.602;23.470;2022-08-21T04:21:47;93037.34;;;17.83;100.00
11053;BME280;55230;42.602;23.470;2022-08-21T04:24:15;92925.59;;;17.25;100.00
11053;BME280;55230;42.602;23.470;2022-08-21T04:26:41;93011.81;;;17.86;100.00
11053;BME280;55230;42.602;23.470;2022-08-21T04:29:08;92989.03;;;17.78;100.00
11053;BME280;55230;42.602;23.470;2022-08-21T04:31:36;92906.28;;;17.23;100.00
11053;BME280;55230;42.602;23.470;2022-08-21T04:34:04;93011.72;;;17.97;100.00
11053;BME280;55230;42.602;23.470;2022-08-21T04:36:31;92985.72;;;17.50;100.00
11053;BME280;55230;42.602;23.470;2022-08-21T04:38:58;93003.25;;;18.06;100.00
11053;BME280;55230;42.602;23.470;2022-08-21T04:41:25;93009.88;;;18.16;100.00
11053;BME280;55230;42.602;23.470;2022-08-21T04:43:51;92920.19;;;17.66;100.00
11053;BME280;55230;42.602;23.470;2022-08-21T04:46:19;92983.56;;;18.18;100.00
11053;BME280;55230;42.602;23.470;2022-08-21T04:48:47;92909.94;;;17.78;100.00
11053;BME280;55230;42.602;23.470;2022-08-21T04:51:17;92987.88;;;18.38;100.00
11053;BME280;55230;42.602;23.470;2022-08-21T04:53:47;93007.22;;;18.75;100.00
11053;BME280;55230;42.602;23.470;2022-08-21T04:56:20;92941.72;;;18.40;100.00
11053;BME280;55230;42.602;23.470;2022-08-21T04:58:47;92905.78;;;18.36;100.00
11053;BME280;55230;42.602;23.470;2022-08-21T05:01:19;93009.66;;;19.03;100.00
11053;BME280;55230;42.602;23.470;2022-08-21T05:03:51;92915.94;;;18.06;100.00
11053;BME280;55230;42.602;23.470;2022-08-21T05:06:19;92956.13;;;18.40;100.00
11053;BME280;55230;42.602;23.470;2022-08-21T05:08:48;93010.03;;;18.29;100.00
11053;BME280;55230;42.602;23.470;2022-08-21T05:11:17;92932.53;;;18.08;100.00
11053;BME280;55230;42.602;23.470;2022-08-21T05:13:44;92998.78;;;18.73;100.00
11053;BME280;55230;42.602;23.470;2022-08-21T05:16:12;92925.19;;;17.97;100.00
11053;BME280;55230;42.602;23.470;2022-08-21T05:18:39;92969.19;;;18.53;100.00
11053;BME280;55230;42.602;23.470;2022-08-21T05:21:07;93000.44;;;18.82;100.00
11053;BME280;55230;42.602;23.470;2022-08-21T05:23:35;92901.81;;;18.02;100.00
11053;BME280;55230;42.602;23.470;2022-08-21T05:26:02;93018.69;;;18.68;100.00
11053;BME280;55230;42.602;23.470;2022-08-21T05:28:29;92507.00;;;15.69;100.00
11053;BME280;55230;42.602;23.470;2022-08-21T05:30:56;92618.16;;;16.70;100.00
11053;BME280;55230;42.602;23.470;2022-08-21T05:33:23;92959.16;;;19.09;100.00
11053;BME280;55230;42.602;23.470;2022-08-21T05:35:50;92867.22;;;18.69;100.00
11053;BME280;55230;42.602;23.470;2022-08-21T05:38:18;93004.22;;;19.70;100.00
11053;BME280;55230;42.602;23.470;2022-08-21T05:40:45;92912.41;;;18.70;100.00
11053;BME280;55230;42.602;23.470;2022-08-21T05:43:13;93003.44;;;19.50;100.00
11053;BME280;55230;42.602;23.470;2022-08-21T05:45:41;92956.53;;;18.98;100.00
11053;BME280;55230;42.602;23.470;2022-08-21T05:48:09;93044.78;;;19.66;100.00
11053;BME280;55230;42.602;23.470;2022-08-21T05:50:36;92973.28;;;19.37;100.00
11053;BME280;55230;42.602;23.470;2022-08-21T05:53:04;92826.09;;;18.13;100.00
11053;BME280;55230;42.602;23.470;2022-08-21T05:55:32;92968.50;;;18.95;100.00
11053;BME280;55230;42.602;23.470;2022-08-21T05:57:58;92991.09;;;19.44;100.00
11053;BME280;55230;42.602;23.470;2022-08-21T06:00:25;92988.38;;;19.81;100.00
11053;BME280;55230;42.602;23.470;2022-08-21T06:02:52;92918.47;;;19.24;100.00
11053;BME280;55230;42.602;23.470;2022-08-21T06:05:19;93016.44;;;20.56;100.00
11053;BME280;55230;42.602;23.470;2022-08-21T06:07:46;93003.22;;;20.73;100.00
11053;BME280;55230;42.602;23.470;2022-08-21T06:10:13;93000.50;;;20.41;100.00
11053;BME280;55230;42.602;23.470;2022-08-21T06:12:41;92991.94;;;20.32;100.00
11053;BME280;55230;42.602;23.470;2022-08-21T06:15:08;92879.28;;;19.40;100.00
11053;BME280;55230;42.602;23.470;2022-08-21T06:17:35;92923.31;;;19.93;100.00
11053;BME280;55230;42.602;23.470;2022-08-21T06:20:03;92939.13;;;19.81;100.00
11053;BME280;55230;42.602;23.470;2022-08-21T06:22:30;92869.66;;;19.52;100.00
11053;BME280;55230;42.602;23.470;2022-08-21T06:24:57;92990.53;;;20.07;100.00
11053;BME280;55230;42.602;23.470;2022-08-21T06:27:24;92988.09;;;19.85;100.00
11053;BME280;55230;42.602;23.470;2022-08-21T06:29:52;92913.25;;;19.26;100.00
11053;BME280;55230;42.602;23.470;2022-08-21T06:32:18;93027.59;;;20.08;100.00
11053;BME280;55230;42.602;23.470;2022-08-21T06:34:45;92970.34;;;20.10;100.00
11053;BME280;55230;42.602;23.470;2022-08-21T06:37:12;92990.34;;;20.68;100.00
11053;BME280;55230;42.602;23.470;2022-08-21T06:39:39;93003.09;;;21.62;100.00
11053;BME280;55230;42.602;23.470;2022-08-21T06:42:05;92906.50;;;20.91;99.02
11053;BME280;55230;42.602;23.470;2022-08-21T06:44:32;92998.03;;;21.14;100.00
11053;BME280;55230;42.602;23.470;2022-08-21T06:47:00;93013.03;;;21.26;100.00
11053;BME280;55230;42.602;23.470;2022-08-21T06:49:27;92928.91;;;20.77;100.00
11053;BME280;55230;42.602;23.470;2022-08-21T06:51:54;93010.97;;;20.88;100.00
11053;BME280;55230;42.602;23.470;2022-08-21T06:54:20;93007.94;;;20.59;100.00
11053;BME280;55230;42.602;23.470;2022-08-21T06:56:47;92624.13;;;17.95;100.00
11053;BME280;55230;42.602;23.470;2022-08-21T06:59:14;93012.31;;;20.81;100.00
11053;BME280;55230;42.602;23.470;2022-08-21T07:01:41;93005.66;;;20.45;100.00
11053;BME280;55230;42.602;23.470;2022-08-21T07:04:09;92989.44;;;20.47;100.00
11053;BME280;55230;42.602;23.470;2022-08-21T07:06:36;93006.75;;;20.55;100.00
11053;BME280;55230;42.602;23.470;2022-08-21T07:09:03;92961.88;;;20.26;100.00
11053;BME280;55230;42.602;23.470;2022-08-21T07:11:30;93007.34;;;20.80;100.00
11053;BME280;55230;42.602;23.470;2022-08-21T07:13:57;92925.34;;;20.24;100.00
11053;BME280;55230;42.602;23.470;2022-08-21T07:16:24;93010.06;;;21.11;100.00
11053;BME280;55230;42.602;23.470;2022-08-21T07:18:50;92773.41;;;18.85;100.00
11053;BME280;55230;42.602;23.470;2022-08-21T07:21:19;92703.50;;;18.77;100.00
11053;BME280;55230;42.602;23.470;2022-08-21T07:23:49;93008.84;;;20.94;100.00
11053;BME280;55230;42.602;23.470;2022-08-21T07:26:18;93005.09;;;21.23;100.00
11053;BME280;55230;42.602;23.470;2022-08-21T07:28:46;93003.00;;;21.29;99.41
11053;BME280;55230;42.602;23.470;2022-08-21T07:31:15;93004.13;;;21.07;97.71
11053;BME280;55230;42.602;23.470;2022-08-21T07:33:43;93004.31;;;20.96;99.10
11053;BME280;55230;42.602;23.470;2022-08-21T07:36:10;92882.38;;;20.32;98.42
11053;BME280;55230;42.602;23.470;2022-08-21T07:38:39;92765.50;;;19.37;97.27
11053;BME280;55230;42.602;23.470;2022-08-21T07:41:11;93000.56;;;21.12;98.32
11053;BME280;55230;42.602;23.470;2022-08-21T07:43:39;92996.47;;;21.19;99.88
11053;BME280;55230;42.602;23.470;2022-08-21T07:46:06;92941.78;;;20.82;95.49
11053;BME280;55230;42.602;23.470;2022-08-21T07:48:32;92482.25;;;17.82;93.35
11053;BME280;55230;42.602;23.470;2022-08-21T07:51:04;92995.88;;;21.99;91.87
11053;BME280;55230;42.602;23.470;2022-08-21T07:53:32;92801.81;;;20.93;88.51
11053;BME280;55230;42.602;23.470;2022-08-21T07:56:00;93015.19;;;22.19;88.14
11053;BME280;55230;42.602;23.470;2022-08-21T07:58:27;92954.91;;;22.01;86.81
11053;BME280;55230;42.602;23.470;2022-08-21T08:00:54;92946.91;;;21.76;88.27
11053;BME280;55230;42.602;23.470;2022-08-21T08:03:21;92850.00;;;20.62;87.85
11053;BME280;55230;42.602;23.470;2022-08-21T08:05:47;92734.72;;;20.47;84.92
11053;BME280;55230;42.602;23.470;2022-08-21T08:08:14;92922.97;;;22.11;85.44
11053;BME280;55230;42.602;23.470;2022-08-21T08:10:42;93002.94;;;23.23;82.77
11053;BME280;55230;42.602;23.470;2022-08-21T08:13:11;92976.41;;;23.61;80.58
11053;BME280;55230;42.602;23.470;2022-08-21T08:15:38;92907.81;;;23.71;76.70
11053;BME280;55230;42.602;23.470;2022-08-21T08:18:05;92836.13;;;24.22;74.41
11053;BME280;55230;42.602;23.470;2022-08-21T08:20:32;93002.34;;;25.28;69.11
11053;BME280;55230;42.602;23.470;2022-08-21T08:22:59;93010.44;;;24.95;70.35
11053;BME280;55230;42.602;23.470;2022-08-21T08:25:26;93010.25;;;25.01;71.84
11053;BME280;55230;42.602;23.470;2022-08-21T08:27:53;93010.72;;;24.54;71.31
11053;BME280;55230;42.602;23.470;2022-08-21T08:30:22;92985.59;;;23.64;78.24
11053;BME280;55230;42.602;23.470;2022-08-21T08:32:49;93014.97;;;24.63;74.75
11053;BME280;55230;42.602;23.470;2022-08-21T08:35:16;93013.38;;;25.20;75.03
11053;BME280;55230;42.602;23.470;2022-08-21T08:37:43;93008.34;;;24.43;73.99
11053;BME280;55230;42.602;23.470;2022-08-21T08:40:13;92988.22;;;24.20;75.90
11053;BME280;55230;42.602;23.470;2022-08-21T08:42:40;93006.25;;;24.29;73.28
11053;BME280;55230;42.602;23.470;2022-08-21T08:45:10;93003.59;;;24.59;72.59
11053;BME280;55230;42.602;23.470;2022-08-21T08:47:42;92769.09;;;22.80;69.58
11053;BME280;55230;42.602;23.470;2022-08-21T08:50:17;92737.75;;;21.50;74.21
11053;BME280;55230;42.602;23.470;2022-08-21T08:52:49;92994.09;;;23.17;76.94
11053;BME280;55230;42.602;23.470;2022-08-21T08:55:21;93002.25;;;23.58;79.94
11053;BME280;55230;42.602;23.470;2022-08-21T08:57:51;92862.63;;;22.39;79.14
11053;BME280;55230;42.602;23.470;2022-08-21T09:00:20;93035.50;;;23.60;79.85
11053;BME280;55230;42.602;23.470;2022-08-21T09:02:50;92435.78;;;20.02;78.92
11053;BME280;55230;42.602;23.470;2022-08-21T09:05:22;92991.66;;;23.70;77.06
11053;BME280;55230;42.602;23.470;2022-08-21T09:08:03;92970.59;;;23.16;76.89
11053;BME280;55230;42.602;23.470;2022-08-21T09:10:44;92935.59;;;23.52;76.69
11053;BME280;55230;42.602;23.470;2022-08-21T09:13:20;92514.50;;;20.84;76.01
11053;BME280;55230;42.602;23.470;2022-08-21T09:15:57;92949.66;;;23.77;75.55
11053;BME280;55230;42.602;23.470;2022-08-21T09:18:38;92922.19;;;23.84;74.57
11053;BME280;55230;42.602;23.470;2022-08-21T09:21:16;92987.88;;;24.24;74.47
11053;BME280;55230;42.602;23.470;2022-08-21T09:23:51;92979.25;;;24.27;75.09
11053;BME280;55230;42.602;23.470;2022-08-21T09:26:24;92915.19;;;23.83;74.28
11053;BME280;55230;42.602;23.470;2022-08-21T09:28:53;92987.00;;;24.44;73.72
11053;BME280;55230;42.602;23.470;2022-08-21T09:31:28;92983.72;;;24.45;73.10
11053;BME280;55230;42.602;23.470;2022-08-21T09:34:01;92986.13;;;24.49;73.23
11053;BME280;55230;42.602;23.470;2022-08-21T09:36:35;92977.47;;;24.45;72.11
11053;BME280;55230;42.602;23.470;2022-08-21T09:39:04;92913.13;;;24.27;72.27
11053;BME280;55230;42.602;23.470;2022-08-21T09:41:33;92984.31;;;24.89;71.15
11053;BME280;55230;42.602;23.470;2022-08-21T09:44:00;92934.28;;;24.62;69.25
11053;BME280;55230;42.602;23.470;2022-08-21T09:46:28;92805.78;;;23.91;68.49
11053;BME280;55230;42.602;23.470;2022-08-21T09:48:57;92930.78;;;24.62;66.83
11053;BME280;55230;42.602;23.470;2022-08-21T09:51:27;92970.91;;;24.70;68.45
11053;BME280;55230;42.602;23.470;2022-08-21T09:53:58;92979.56;;;24.16;72.09
11053;BME280;55230;42.602;23.470;2022-08-21T09:56:29;92997.31;;;23.57;72.83
11053;BME280;55230;42.602;23.470;2022-08-21T09:59:24;92973.44;;;23.03;75.86
11053;BME280;55230;42.602;23.470;2022-08-21T10:01:52;92975.22;;;22.93;76.31
11053;BME280;55230;42.602;23.470;2022-08-21T10:04:21;92697.91;;;21.15;76.39
11053;BME280;55230;42.602;23.470;2022-08-21T10:06:50;92637.13;;;20.70;75.93
11053;BME280;55230;42.602;23.470;2022-08-21T10:09:19;92961.88;;;22.56;79.63
11053;BME280;55230;42.602;23.470;2022-08-21T10:11:52;92910.72;;;22.12;80.46
11053;BME280;55230;42.602;23.470;2022-08-21T10:14:31;92971.97;;;22.40;83.46
11053;BME280;55230;42.602;23.470;2022-08-21T10:17:06;92941.88;;;21.81;81.21
11053;BME280;55230;42.602;23.470;2022-08-21T10:19:38;92964.78;;;22.17;83.06
11053;BME280;55230;42.602;23.470;2022-08-21T10:22:19;92944.25;;;21.97;82.11
11053;BME280;55230;42.602;23.470;2022-08-21T10:24:58;92979.16;;;22.43;82.00
11053;BME280;55230;42.602;23.470;2022-08-21T10:27:34;92963.22;;;22.62;79.31
11053;BME280;55230;42.602;23.470;2022-08-21T10:30:07;92897.75;;;22.33;79.32
11053;BME280;55230;42.602;23.470;2022-08-21T10:32:50;92955.13;;;23.69;77.61
11053;BME280;55230;42.602;23.470;2022-08-21T10:35:23;92957.91;;;24.20;76.02
11053;BME280;55230;42.602;23.470;2022-08-21T10:38:06;92937.94;;;24.35;74.68
11053;BME280;55230;42.602;23.470;2022-08-21T10:40:41;92954.75;;;24.97;71.57
11053;BME280;55230;42.602;23.470;2022-08-21T10:43:26;92824.56;;;24.53;70.23
11053;BME280;55230;42.602;23.470;2022-08-21T10:46:01;92998.84;;;25.57;68.01
11053;BME280;55230;42.602;23.470;2022-08-21T10:48:35;92907.91;;;25.52;68.96
11053;BME280;55230;42.602;23.470;2022-08-21T10:51:06;92841.84;;;24.69;66.77
11053;BME280;55230;42.602;23.470;2022-08-21T10:53:45;92917.03;;;26.16;66.78
11053;BME280;55230;42.602;23.470;2022-08-21T10:56:18;92908.81;;;26.34;62.52
11053;BME280;55230;42.602;23.470;2022-08-21T10:58:57;92931.06;;;27.00;63.54
11053;BME280;55230;42.602;23.470;2022-08-21T11:01:29;92925.75;;;26.94;58.62
11053;BME280;55230;42.602;23.470;2022-08-21T11:04:09;92902.25;;;27.20;60.33
11053;BME280;55230;42.602;23.470;2022-08-21T11:06:40;92866.59;;;25.76;63.06
11053;BME280;55230;42.602;23.470;2022-08-21T11:09:13;92915.50;;;25.29;67.76
11053;BME280;55230;42.602;23.470;2022-08-21T11:11:46;92851.16;;;25.66;66.57
11053;BME280;55230;42.602;23.470;2022-08-21T11:14:21;92905.31;;;26.08;64.17
11053;BME280;55230;42.602;23.470;2022-08-21T11:16:56;92903.47;;;26.36;60.20
11053;BME280;55230;42.602;23.470;2022-08-21T11:19:35;92887.13;;;25.90;61.14
11053;BME280;55230;42.602;23.470;2022-08-21T11:22:08;92899.19;;;26.42;65.83
11053;BME280;55230;42.602;23.470;2022-08-21T11:24:44;92658.16;;;23.88;64.78
11053;BME280;55230;42.602;23.470;2022-08-21T11:27:20;92782.88;;;24.42;65.94
11053;BME280;55230;42.602;23.470;2022-08-21T11:29:50;92886.91;;;25.56;61.98
11053;BME280;55230;42.602;23.470;2022-08-21T11:32:47;92894.03;;;24.82;64.90
11053;BME280;55230;42.602;23.470;2022-08-21T11:35:23;92706.44;;;23.97;67.45
11053;BME280;55230;42.602;23.470;2022-08-21T11:38:00;92759.00;;;24.22;66.25
11053;BME280;55230;42.602;23.470;2022-08-21T11:40:48;92886.53;;;25.60;65.85
11053;BME280;55230;42.602;23.470;2022-08-21T11:43:21;92893.22;;;25.34;64.82
11053;BME280;55230;42.602;23.470;2022-08-21T11:45:54;92725.91;;;23.46;66.97
11053;BME280;55230;42.602;23.470;2022-08-21T11:48:34;92881.16;;;24.62;68.02
11053;BME280;55230;42.602;23.470;2022-08-21T11:51:06;92896.03;;;24.66;67.92
11053;BME280;55230;42.602;23.470;2022-08-21T11:53:38;92762.97;;;23.60;68.88
11053;BME280;55230;42.602;23.470;2022-08-21T11:56:11;92845.53;;;24.26;68.63
11053;BME280;55230;42.602;23.470;2022-08-21T11:58:42;92876.56;;;24.64;68.18
11053;BME280;55230;42.602;23.470;2022-08-21T12:01:14;92844.88;;;23.82;70.27
11053;BME280;55230;42.602;23.470;2022-08-21T12:03:53;92917.81;;;23.96;72.65
11053;BME280;55230;42.602;23.470;2022-08-21T12:06:30;92884.78;;;24.04;70.88
11053;BME280;55230;42.602;23.470;2022-08-21T12:08:59;92856.88;;;24.08;71.45
11053;BME280;55230;42.602;23.470;2022-08-21T12:11:28;92410.50;;;20.78;70.75
11053;BME280;55230;42.602;23.470;2022-08-21T12:13:58;92871.59;;;24.48;71.19
11053;BME280;55230;42.602;23.470;2022-08-21T12:16:30;92874.31;;;24.02;72.09
11053;BME280;55230;42.602;23.470;2022-08-21T12:19:05;92871.50;;;23.87;73.16
11053;BME280;55230;42.602;23.470;2022-08-21T12:21:33;92884.84;;;23.68;73.90
11053;BME280;55230;42.602;23.470;2022-08-21T12:24:15;92881.44;;;23.98;73.08
11053;BME280;55230;42.602;23.470;2022-08-21T12:26:51;92888.41;;;23.91;73.29
11053;BME280;55230;42.602;23.470;2022-08-21T12:29:23;92856.25;;;23.79;74.33
11053;BME280;55230;42.602;23.470;2022-08-21T12:31:55;92860.78;;;23.61;74.04
11053;BME280;55230;42.602;23.470;2022-08-21T12:34:25;92837.78;;;24.02;75.34
11053;BME280;55230;42.602;23.470;2022-08-21T12:36:56;92891.47;;;24.54;74.04
11053;BME280;55230;42.602;23.470;2022-08-21T12:39:27;92799.38;;;23.96;73.41
11053;BME280;55230;42.602;23.470;2022-08-21T12:42:00;92885.22;;;24.53;74.23
11053;BME280;55230;42.602;23.470;2022-08-21T12:44:34;92827.13;;;24.14;73.80
11053;BME280;55230;42.602;23.470;2022-08-21T12:47:06;92870.50;;;24.21;73.70
11053;BME280;55230;42.602;23.470;2022-08-21T12:49:35;92871.59;;;24.33;74.25
11053;BME280;55230;42.602;23.470;2022-08-21T12:52:09;92872.34;;;24.26;74.40
11053;BME280;55230;42.602;23.470;2022-08-21T12:54:39;92785.09;;;23.32;73.42
11053;BME280;55230;42.602;23.470;2022-08-21T12:57:16;92856.47;;;23.96;74.46